Ronnie Rogers — WDD2270 — position and weather

sailwx.info

Track history (hours):
 
Tides and Currents Weather Stations Pressure Air Temp Water Temp Dewpoint Dewpoint Depression Visibility Wind Speed Wind Dir Waves Ship Positions

Ronnie Rogers

Owner: Florida Marine Transporters, Inc., Mandeville, LA. More information available from US FCC via Universal Licensing System and Coast Guard Vessel Documentation Center.

Last reported at 2015-May-17 16:04 UTC. Time now 2015-May-24 09:23 UTC.
Position N 29°21' W 094°49'.

Length 29 m; draft 3 m.

Type: Towing. MMSI: 367113160.

Date/timePositionNaut miles runAvg speedWind from/ knotsBaromVisibWave heightAir tempDewpointWater temp
2015-May-17 16:04N 29°21' W 094°49'3 4.0
2015-May-17 15:26N 29°23' W 094°49'5 6.0
2015-May-17 14:34N 29°28' W 094°51'6 6.1
2015-May-17 13:33N 29°33' W 094°55'6 6.1
2015-May-17 12:33N 29°39' W 094°58'5 5.4
2015-May-17 11:33N 29°43' W 095°01'4 4.4
2015-May-17 10:33N 29°45' W 095°06'4 3.6
2015-May-17 09:33N 29°45' W 095°10'2 2.1
2015-May-17 08:33N 29°44' W 095°12'0 0.0
2015-May-17 07:33N 29°44' W 095°12'0 0.0
2015-May-17 06:33N 29°44' W 095°12'0 0.0
2015-May-17 05:34N 29°44' W 095°12'0 0.0
2015-May-17 04:33N 29°44' W 095°12'0 0.0
2015-May-17 03:33N 29°44' W 095°12'0 0.1
2015-May-17 02:33N 29°44' W 095°12'0 0.0
2015-May-17 01:34N 29°44' W 095°12'0 0.0
2015-May-17 00:34N 29°44' W 095°12'0 0.0
2015-May-16 23:33N 29°44' W 095°12'0 0.0
2015-May-16 22:33N 29°44' W 095°12'0 0.0
2015-May-16 21:33N 29°44' W 095°12'0 0.0
2015-May-16 20:33N 29°44' W 095°12'0 0.0
2015-May-16 19:33N 29°44' W 095°12'0 0.0
2015-May-16 18:33N 29°44' W 095°12'0 0.0
2015-May-16 17:33N 29°44' W 095°12'0 0.0
2015-May-16 16:33N 29°44' W 095°12'0 0.0
2015-May-16 15:33N 29°44' W 095°12'0 0.0
2015-May-16 14:33N 29°44' W 095°12'0 0.0
2015-May-16 13:33N 29°44' W 095°12'0 0.0
2015-May-16 12:33N 29°44' W 095°12'0 0.0
2015-May-16 11:33N 29°44' W 095°12'0 0.0
2015-May-16 10:33N 29°44' W 095°12'0 0.1
2015-May-16 09:33N 29°44' W 095°12'0 0.0
2015-May-16 08:33N 29°44' W 095°12'0 0.1
2015-May-16 07:33N 29°44' W 095°12'0 0.0
2015-May-16 06:34N 29°44' W 095°12'3 2.6
2015-May-16 05:33N 29°44' W 095°09'5 4.6
2015-May-16 04:33N 29°46' W 095°05'0 0.1
2015-May-16 03:33N 29°46' W 095°05'0 0.0
2015-May-16 02:33N 29°46' W 095°05'0 0.0
2015-May-16 01:33N 29°46' W 095°05'1 1.0
2015-May-16 00:33N 29°47' W 095°05'873875.0
2015-May-15 23:33N 29°47' W 111°50'873860.9
2015-May-15 22:33N 29°47' W 095°05'1 0.9
2015-May-15 21:33N 29°46' W 095°05'2 2.4
2015-May-15 20:33N 29°44' W 095°03'5 5.2
2015-May-15 19:33N 29°41' W 094°59'7 6.8
2015-May-15 18:32N 29°35' W 094°56'7 7.0
2015-May-15 17:33N 29°29' W 094°51'7 6.7
2015-May-15 16:33N 29°23' W 094°48'11 1.2
2015-May-15 07:20N 29°16' W 094°59'  
Track history (hours):
 
Tides and Currents Weather Stations Pressure Air Temp Water Temp Dewpoint Dewpoint Depression Visibility Wind Speed Wind Dir Waves Ship Positions

Ronnie Rogers

Owner: Florida Marine Transporters, Inc., Mandeville, LA. More information available from US FCC via Universal Licensing System and Coast Guard Vessel Documentation Center.

Last reported at 2015-May-17 16:04 UTC. Time now 2015-May-24 09:23 UTC.
Position N 29°21' W 094°49'.

Length 29 m; draft 3 m.

Type: Towing. MMSI: 367113160.

Date/timePositionNaut miles runAvg speedWind from/ knotsBaromVisibWave heightAir tempDewpointWater temp
2015-May-17 16:04N 29°21' W 094°49'3 4.0
2015-May-17 15:26N 29°23' W 094°49'5 6.0
2015-May-17 14:34N 29°28' W 094°51'6 6.1
2015-May-17 13:33N 29°33' W 094°55'6 6.1
2015-May-17 12:33N 29°39' W 094°58'5 5.4
2015-May-17 11:33N 29°43' W 095°01'4 4.4
2015-May-17 10:33N 29°45' W 095°06'4 3.6
2015-May-17 09:33N 29°45' W 095°10'2 2.1
2015-May-17 08:33N 29°44' W 095°12'0 0.0
2015-May-17 07:33N 29°44' W 095°12'0 0.0
2015-May-17 06:33N 29°44' W 095°12'0 0.0
2015-May-17 05:34N 29°44' W 095°12'0 0.0
2015-May-17 04:33N 29°44' W 095°12'0 0.0
2015-May-17 03:33N 29°44' W 095°12'0 0.1
2015-May-17 02:33N 29°44' W 095°12'0 0.0
2015-May-17 01:34N 29°44' W 095°12'0 0.0
2015-May-17 00:34N 29°44' W 095°12'0 0.0
2015-May-16 23:33N 29°44' W 095°12'0 0.0
2015-May-16 22:33N 29°44' W 095°12'0 0.0
2015-May-16 21:33N 29°44' W 095°12'0 0.0
2015-May-16 20:33N 29°44' W 095°12'0 0.0
2015-May-16 19:33N 29°44' W 095°12'0 0.0
2015-May-16 18:33N 29°44' W 095°12'0 0.0
2015-May-16 17:33N 29°44' W 095°12'0 0.0
2015-May-16 16:33N 29°44' W 095°12'0 0.0
2015-May-16 15:33N 29°44' W 095°12'0 0.0
2015-May-16 14:33N 29°44' W 095°12'0 0.0
2015-May-16 13:33N 29°44' W 095°12'0 0.0
2015-May-16 12:33N 29°44' W 095°12'0 0.0
2015-May-16 11:33N 29°44' W 095°12'0 0.0
2015-May-16 10:33N 29°44' W 095°12'0 0.1
2015-May-16 09:33N 29°44' W 095°12'0 0.0
2015-May-16 08:33N 29°44' W 095°12'0 0.1
2015-May-16 07:33N 29°44' W 095°12'0 0.0
2015-May-16 06:34N 29°44' W 095°12'3 2.6
2015-May-16 05:33N 29°44' W 095°09'5 4.6
2015-May-16 04:33N 29°46' W 095°05'0 0.1
2015-May-16 03:33N 29°46' W 095°05'0 0.0
2015-May-16 02:33N 29°46' W 095°05'0 0.0
2015-May-16 01:33N 29°46' W 095°05'1 1.0
2015-May-16 00:33N 29°47' W 095°05'873875.0
2015-May-15 23:33N 29°47' W 111°50'873860.9
2015-May-15 22:33N 29°47' W 095°05'1 0.9
2015-May-15 21:33N 29°46' W 095°05'2 2.4
2015-May-15 20:33N 29°44' W 095°03'5 5.2
2015-May-15 19:33N 29°41' W 094°59'7 6.8
2015-May-15 18:32N 29°35' W 094°56'7 7.0
2015-May-15 17:33N 29°29' W 094°51'7 6.7
2015-May-15 16:33N 29°23' W 094°48'11 1.2
2015-May-15 07:20N 29°16' W 094°59'  

Dump ship's entire track history